Terminal Aerodrome Forecast
Issued by NWS Houston/Galveston TX

Home | Current Version | Previous Version | Text Only | Print | Product List | Glossary On
Versions: 1 2 3 4 5 6 7 8 9 10 11 12 13 14 15 16 17 18 19 20 21 22 23 24 25 26 27 28 29 30 31
000
FTUS44 KHGX 261720
TAFHOU
TAF
KHOU 261720Z 2618/2718 17007KT P6SM VCTS SCT040CB BKN070 OVC250
      TEMPO 2618/2622 VRB10G20KT TSRA BKN030CB
     FM270100 VRB04KT P6SM FEW035 BKN100
     FM270600 VRB04KT P6SM BKN250
     FM271300 VRB04KT P6SM VCSH BKN025 PROB30 2713/2716 SHRA
     FM271600 VRB05KT P6SM VCTS BKN035CB PROB30 2716/2718 TSRA=

USA.gov is the U.S. government's official web portal to all federal, state and local government web resources and services.